createdAt,value
2019-05-10T00:00:14.282Z,3.00
2019-05-10T00:03:22.109Z,3.35
2019-05-10T00:06:28.952Z,2.52
2019-05-10T00:09:16.768Z,2.95
2019-05-10T00:12:20.975Z,2.55
2019-05-10T00:15:11.910Z,2.87
2019-05-10T00:18:01.383Z,2.62
2019-05-10T00:20:53.603Z,3.10
2019-05-10T00:23:44.041Z,2.60
2019-05-10T00:26:35.782Z,2.75
2019-05-10T00:29:25.454Z,2.90
2019-05-10T00:32:17.369Z,3.30
2019-05-10T00:35:09.409Z,3.60
2019-05-10T00:37:58.792Z,3.50
2019-05-10T00:40:49.385Z,3.42
2019-05-10T00:43:41.669Z,3.55
2019-05-10T00:46:32.333Z,3.30
2019-05-10T00:49:22.230Z,3.25
2019-05-10T00:52:12.623Z,3.25
2019-05-10T00:55:16.696Z,3.67
2019-05-10T00:57:52.938Z,2.75
2019-05-10T01:00:41.563Z,2.83
2019-05-10T01:03:30.119Z,2.60
2019-05-10T01:06:18.638Z,2.90
2019-05-10T01:09:07.843Z,2.98
2019-05-10T01:11:58.116Z,2.83
2019-05-10T01:14:47.507Z,2.60
2019-05-10T01:17:36.653Z,2.10
2019-05-10T01:20:25.598Z,2.27
2019-05-10T01:23:15.076Z,2.33
2019-05-10T01:26:04.401Z,2.10
2019-05-10T01:28:53.862Z,2.20
2019-05-10T01:31:42.890Z,2.05
2019-05-10T01:34:32.016Z,2.40
2019-05-10T01:37:21.045Z,2.17
2019-05-10T01:40:10.541Z,2.20
2019-05-10T01:43:00.058Z,2.50
2019-05-10T01:45:48.942Z,2.62
2019-05-10T01:48:37.629Z,2.50
2019-05-10T01:51:27.907Z,2.65
2019-05-10T01:54:17.587Z,2.22
2019-05-10T01:57:06.302Z,1.87
2019-05-10T01:59:55.682Z,2.50
2019-05-10T02:02:45.154Z,2.27
2019-05-10T02:05:34.923Z,1.87
2019-05-10T02:08:24.332Z,1.95
2019-05-10T02:11:13.539Z,2.17
2019-05-10T02:14:02.900Z,1.98
2019-05-10T02:16:52.339Z,2.27
2019-05-10T02:19:41.542Z,2.37
2019-05-10T02:22:31.066Z,2.25
2019-05-10T02:25:19.972Z,1.75
2019-05-10T02:28:09.376Z,2.10
2019-05-10T02:30:58.638Z,2.47
2019-05-10T02:33:47.638Z,1.95
2019-05-10T02:36:38.860Z,2.62
2019-05-10T02:39:27.872Z,2.15
2019-05-10T02:42:17.397Z,2.22
2019-05-10T02:45:07.904Z,2.40
2019-05-10T02:47:57.095Z,2.12
2019-05-10T02:50:46.543Z,1.90
2019-05-10T02:53:35.396Z,1.90
2019-05-10T02:56:30.463Z,2.20
2019-05-10T02:59:15.476Z,2.10
2019-05-10T03:02:06.588Z,1.90
2019-05-10T03:04:56.384Z,2.30
2019-05-10T03:07:45.357Z,2.00
2019-05-10T03:10:34.904Z,1.90
2019-05-10T03:13:27.118Z,2.30
2019-05-10T03:16:14.813Z,2.12
2019-05-10T03:19:04.248Z,1.62
2019-05-10T03:22:06.028Z,2.27
2019-05-10T03:24:58.429Z,2.00
2019-05-10T03:27:48.026Z,2.20
2019-05-10T03:30:37.910Z,2.20
2019-05-10T03:33:29.305Z,2.20
2019-05-10T03:36:18.395Z,1.72
2019-05-10T03:39:07.545Z,2.30
2019-05-10T03:41:57.253Z,2.08
2019-05-10T03:44:46.541Z,2.22
2019-05-10T03:47:35.966Z,1.70
2019-05-10T03:50:25.078Z,1.80
2019-05-10T03:53:14.039Z,1.70
2019-05-10T03:56:03.435Z,2.00
2019-05-10T03:58:52.555Z,1.82
2019-05-10T04:01:41.612Z,2.08
2019-05-10T04:04:31.032Z,1.70
2019-05-10T04:07:20.318Z,1.85
2019-05-10T04:10:09.315Z,1.92
2019-05-10T04:12:58.231Z,1.57
2019-05-10T04:15:47.474Z,2.22
2019-05-10T04:18:36.880Z,1.95
2019-05-10T04:21:26.295Z,1.85
2019-05-10T04:24:15.217Z,1.72
2019-05-10T04:27:04.119Z,2.22
2019-05-10T04:29:53.245Z,1.80
2019-05-10T04:32:43.993Z,2.02
2019-05-10T04:35:32.971Z,2.00
2019-05-10T04:38:21.690Z,1.52
2019-05-10T04:41:10.765Z,1.70
2019-05-10T04:44:00.196Z,1.65
2019-05-10T04:46:49.668Z,1.70
2019-05-10T04:49:39.640Z,1.52
2019-05-10T04:52:29.209Z,2.33
2019-05-10T04:55:18.896Z,1.60
2019-05-10T04:58:07.414Z,1.45
2019-05-10T05:00:56.903Z,1.50
2019-05-10T05:03:46.204Z,2.05
2019-05-10T05:06:34.868Z,1.37
2019-05-10T05:09:24.169Z,1.82
2019-05-10T05:12:12.785Z,1.72
2019-05-10T05:15:01.794Z,1.80
2019-05-10T05:17:50.661Z,1.82
2019-05-10T05:20:40.172Z,1.57
2019-05-10T05:23:29.732Z,2.00
2019-05-10T05:26:19.257Z,2.30
2019-05-10T05:29:07.941Z,2.30
2019-05-10T05:32:01.271Z,2.08
2019-05-10T05:34:47.639Z,1.82
2019-05-10T05:37:36.286Z,1.77
2019-05-10T05:40:25.626Z,2.17
2019-05-10T05:43:14.403Z,1.90
2019-05-10T05:46:04.297Z,2.05
2019-05-10T05:48:53.956Z,1.57
2019-05-10T05:51:43.041Z,1.60
2019-05-10T05:54:32.491Z,1.72
2019-05-10T05:57:27.179Z,2.30
2019-05-10T06:00:14.445Z,2.52
2019-05-10T06:03:03.784Z,2.00
2019-05-10T06:05:52.498Z,2.10
2019-05-10T06:08:42.240Z,2.10
2019-05-10T06:11:35.812Z,2.22
2019-05-10T06:14:21.348Z,2.00
2019-05-10T06:17:10.553Z,2.10
2019-05-10T06:20:00.954Z,1.98
2019-05-10T06:23:05.657Z,2.20
2019-05-10T06:25:42.540Z,2.08
2019-05-10T06:28:56.902Z,1.70
2019-05-10T06:31:22.030Z,1.95
2019-05-10T06:34:10.556Z,1.67
2019-05-10T06:37:00.016Z,1.70
2019-05-10T06:39:49.556Z,1.90
2019-05-10T06:42:38.796Z,2.50
2019-05-10T06:45:28.427Z,1.80
2019-05-10T06:48:26.324Z,1.72
2019-05-10T06:51:09.707Z,1.50
2019-05-10T06:53:58.967Z,1.60
2019-05-10T06:56:47.959Z,2.27
2019-05-10T06:59:37.542Z,1.90
2019-05-10T07:02:32.228Z,1.70
2019-05-10T07:05:16.921Z,1.77
2019-05-10T07:08:14.200Z,1.90
2019-05-10T07:10:56.467Z,1.65
2019-05-10T07:13:47.101Z,1.60
2019-05-10T07:16:36.011Z,1.85
2019-05-10T07:19:28.568Z,1.62
2019-05-10T07:22:21.761Z,2.15
2019-05-10T07:25:07.530Z,2.05
2019-05-10T07:27:56.968Z,1.70
2019-05-10T07:30:45.898Z,2.05
2019-05-10T07:33:37.331Z,1.40
2019-05-10T07:36:29.721Z,1.80
2019-05-10T07:39:16.437Z,1.50
2019-05-10T07:42:06.489Z,1.60
2019-05-10T07:44:56.813Z,1.90
2019-05-10T07:47:46.390Z,1.80
2019-05-10T07:50:35.973Z,1.87
2019-05-10T07:53:25.262Z,1.90
2019-05-10T07:56:14.525Z,1.75
2019-05-10T07:59:03.867Z,1.72
2019-05-10T08:01:52.661Z,1.70
2019-05-10T08:04:41.587Z,1.77
2019-05-10T08:07:31.082Z,1.50
2019-05-10T08:10:21.475Z,1.67
2019-05-10T08:13:15.439Z,1.98
2019-05-10T08:16:05.540Z,1.45
2019-05-10T08:18:55.771Z,1.70
2019-05-10T08:21:42.861Z,1.47
2019-05-10T08:24:32.735Z,1.65
2019-05-10T08:27:23.006Z,1.82
2019-05-10T08:30:25.192Z,1.72
2019-05-10T08:33:09.477Z,1.50
2019-05-10T08:36:55.031Z,1.70
2019-05-10T08:39:48.957Z,1.60
2019-05-10T08:42:45.548Z,1.85
2019-05-10T08:45:26.354Z,1.80
2019-05-10T08:48:15.299Z,1.90
2019-05-10T08:51:07.522Z,1.92
2019-05-10T08:53:58.129Z,1.75
2019-05-10T08:56:46.700Z,2.10
2019-05-10T08:59:35.858Z,1.80
2019-05-10T09:02:29.318Z,2.35
2019-05-10T09:05:20.983Z,2.02
2019-05-10T09:08:13.659Z,1.85
2019-05-10T09:10:57.525Z,2.08
2019-05-10T09:13:47.201Z,1.62
2019-05-10T09:16:43.459Z,1.90
2019-05-10T09:19:36.134Z,2.35
2019-05-10T09:22:17.688Z,1.80
2019-05-10T09:25:06.604Z,1.95
2019-05-10T09:27:55.769Z,1.85
2019-05-10T09:30:56.436Z,1.77
2019-05-10T09:33:34.971Z,2.05
2019-05-10T09:36:30.988Z,2.27
2019-05-10T09:39:21.440Z,1.82
2019-05-10T09:42:09.901Z,1.75
2019-05-10T09:44:56.966Z,1.98
2019-05-10T09:47:46.171Z,2.70
2019-05-10T09:50:44.391Z,2.12
2019-05-10T09:53:27.526Z,1.85
2019-05-10T09:59:12.310Z,2.10
2019-05-10T10:02:05.077Z,1.70
2019-05-10T10:04:52.567Z,1.85
2019-05-10T10:07:41.523Z,2.20
2019-05-10T10:10:32.528Z,2.10
2019-05-10T10:13:39.074Z,2.05
2019-05-10T10:16:14.696Z,1.75
2019-05-10T10:19:02.856Z,1.85
2019-05-10T10:21:51.783Z,1.70
2019-05-10T10:24:41.135Z,1.55
2019-05-10T10:27:34.530Z,1.80
2019-05-10T10:30:21.876Z,1.52
2019-05-10T10:33:17.475Z,2.12
2019-05-10T10:36:04.732Z,1.55
2019-05-10T10:38:51.712Z,1.70
2019-05-10T10:41:40.350Z,2.15
2019-05-10T10:44:29.451Z,1.72
2019-05-10T10:47:22.930Z,2.20
2019-05-10T10:50:13.495Z,1.70
2019-05-10T10:53:00.181Z,1.75
2019-05-10T10:55:54.958Z,1.65
2019-05-10T10:58:39.742Z,1.80
2019-05-10T11:01:45.704Z,1.90
2019-05-10T11:04:20.435Z,1.67
2019-05-10T11:07:11.109Z,1.80
2019-05-10T11:10:14.342Z,2.05
2019-05-10T11:12:56.180Z,2.12
2019-05-10T11:15:42.736Z,1.67
2019-05-10T11:18:32.094Z,1.70
2019-05-10T11:21:23.441Z,1.82
2019-05-10T11:24:17.929Z,1.90
2019-05-10T11:27:07.341Z,1.60
2019-05-10T11:29:55.175Z,1.62
2019-05-10T11:32:45.374Z,1.87
2019-05-10T11:35:35.358Z,1.60
2019-05-10T11:38:24.716Z,1.92
2019-05-10T11:41:21.335Z,1.90
2019-05-10T11:44:09.056Z,1.52
2019-05-10T11:46:56.918Z,1.90
2019-05-10T11:49:46.929Z,2.50
2019-05-10T11:52:36.689Z,1.70
2019-05-10T11:55:25.790Z,2.10
2019-05-10T11:58:15.188Z,1.80
2019-05-10T12:01:14.791Z,1.75
2019-05-10T12:03:56.980Z,1.95
2019-05-10T12:06:49.961Z,2.10
2019-05-10T12:09:36.663Z,1.87
2019-05-10T12:12:45.247Z,2.40
2019-05-10T12:15:25.197Z,2.30
2019-05-10T12:18:14.898Z,2.02
2019-05-10T12:21:09.347Z,2.50
2019-05-10T12:23:56.008Z,1.90
2019-05-10T12:29:34.900Z,1.95
2019-05-10T12:32:26.942Z,1.70
2019-05-10T12:35:14.408Z,1.75
2019-05-10T12:38:03.037Z,1.82
2019-05-10T12:40:52.456Z,1.57
2019-05-10T12:43:43.606Z,1.70
2019-05-10T12:46:31.910Z,2.08
2019-05-10T12:49:21.436Z,1.47
2019-05-10T12:52:14.331Z,1.50
2019-05-10T12:55:02.259Z,1.55
2019-05-10T12:57:53.628Z,1.90
2019-05-10T13:00:52.687Z,1.80
2019-05-10T13:03:41.553Z,1.65
2019-05-10T13:06:33.695Z,1.90
2019-05-10T13:09:38.702Z,1.87
2019-05-10T13:12:15.120Z,2.12
2019-05-10T13:15:07.335Z,1.92
2019-05-10T13:17:57.609Z,1.75
2019-05-10T13:20:49.244Z,2.05
2019-05-10T13:23:41.767Z,1.80
2019-05-10T13:26:38.432Z,2.00
2019-05-10T13:29:29.723Z,2.15
2019-05-10T13:32:20.598Z,1.98
2019-05-10T13:35:15.120Z,2.22
2019-05-10T13:38:08.254Z,1.85
2019-05-10T13:40:58.808Z,2.12
2019-05-10T13:43:48.732Z,1.75
2019-05-10T13:46:38.597Z,2.10
2019-05-10T13:49:28.519Z,2.08
2019-05-10T13:52:19.013Z,1.82
2019-05-10T13:55:09.475Z,2.02
2019-05-10T13:57:59.640Z,1.70
2019-05-10T14:00:52.732Z,1.95
2019-05-10T14:03:48.117Z,1.52
2019-05-10T14:06:35.630Z,2.25
2019-05-10T14:09:25.026Z,1.72
2019-05-10T14:12:16.162Z,1.77
2019-05-10T14:15:09.823Z,1.87
2019-05-10T14:17:56.519Z,2.02
2019-05-10T14:20:45.677Z,1.57
2019-05-10T14:23:35.140Z,1.57
2019-05-10T14:26:24.840Z,1.70
2019-05-10T14:29:14.297Z,1.67
2019-05-10T14:32:03.354Z,2.33
2019-05-10T14:34:52.501Z,2.08
2019-05-10T14:37:41.562Z,2.05
2019-05-10T14:40:31.003Z,2.02
2019-05-10T14:43:20.417Z,1.60
2019-05-10T14:46:13.729Z,1.92
2019-05-10T14:49:08.816Z,2.40
2019-05-10T14:51:59.117Z,1.90
2019-05-10T14:54:44.125Z,1.90
2019-05-10T14:57:33.257Z,1.77
2019-05-10T15:00:23.375Z,1.90
2019-05-10T15:03:13.689Z,1.75
2019-05-10T15:06:03.617Z,1.70
2019-05-10T15:08:53.867Z,1.55
2019-05-10T15:11:43.687Z,1.52
2019-05-10T15:14:34.227Z,1.77
2019-05-10T15:17:23.058Z,1.45
2019-05-10T15:20:12.221Z,2.50
2019-05-10T15:23:01.855Z,1.92
2019-05-10T15:25:56.990Z,1.98
2019-05-10T15:28:46.184Z,2.00
2019-05-10T15:31:35.631Z,1.80
2019-05-10T15:34:25.632Z,1.92
2019-05-10T15:37:17.776Z,1.57
2019-05-10T15:40:07.958Z,1.60
2019-05-10T15:42:58.271Z,1.62
2019-05-10T15:45:52.574Z,1.60
2019-05-10T15:48:41.930Z,1.80
2019-05-10T15:51:36.344Z,1.98
2019-05-10T15:54:20.062Z,1.65
2019-05-10T15:57:08.922Z,1.42
2019-05-10T15:59:59.207Z,1.40
2019-05-10T16:02:53.112Z,1.57
2019-05-10T16:05:43.473Z,1.30
2019-05-10T16:08:30.294Z,1.25
2019-05-10T16:11:20.809Z,1.50
2019-05-10T16:14:09.936Z,1.80
2019-05-10T16:16:59.401Z,1.80
2019-05-10T16:19:51.022Z,1.40
2019-05-10T16:22:40.001Z,1.62
2019-05-10T16:25:32.852Z,1.65
2019-05-10T16:28:20.850Z,1.50
2019-05-10T16:31:09.491Z,1.75
2019-05-10T16:33:58.543Z,1.55
2019-05-10T16:36:47.865Z,1.65
2019-05-10T16:39:36.717Z,1.60
2019-05-10T16:42:27.906Z,1.42
2019-05-10T16:45:16.885Z,1.52
2019-05-10T16:48:06.283Z,1.35
2019-05-10T16:50:56.333Z,2.12
2019-05-10T16:53:45.936Z,1.65
2019-05-10T16:56:35.662Z,1.40
2019-05-10T16:59:29.882Z,1.35
2019-05-10T17:02:16.101Z,1.35
2019-05-10T17:05:09.804Z,1.65
2019-05-10T17:07:58.917Z,1.30
2019-05-10T17:10:46.520Z,1.20
2019-05-10T17:13:36.434Z,1.67
2019-05-10T17:16:26.336Z,1.40
2019-05-10T17:19:15.786Z,1.42
2019-05-10T17:22:05.111Z,1.40
2019-05-10T17:24:57.054Z,1.82
2019-05-10T17:27:44.879Z,1.72
2019-05-10T17:30:33.676Z,1.75
2019-05-10T17:33:22.831Z,1.25
2019-05-10T17:36:14.599Z,1.27
2019-05-10T17:39:03.467Z,1.60
2019-05-10T17:41:52.563Z,1.60
2019-05-10T17:44:43.708Z,1.98
2019-05-10T17:47:33.485Z,1.52
2019-05-10T17:50:22.978Z,1.20
2019-05-10T17:53:12.101Z,1.90
2019-05-10T17:56:02.977Z,1.22
2019-05-10T17:58:52.892Z,1.37
2019-05-10T18:01:42.221Z,1.50
2019-05-10T18:04:31.211Z,1.50
2019-05-10T18:07:20.775Z,1.22
2019-05-10T18:10:10.171Z,1.50
2019-05-10T18:13:03.348Z,1.50
2019-05-10T18:15:51.234Z,1.60
2019-05-10T18:18:46.253Z,1.55
2019-05-10T18:21:31.668Z,1.17
2019-05-10T18:24:20.554Z,1.30
2019-05-10T18:27:09.758Z,1.47
2019-05-10T18:30:02.180Z,1.67
2019-05-10T18:32:51.858Z,1.77
2019-05-10T18:35:40.789Z,1.40
2019-05-10T18:38:30.815Z,1.40
2019-05-10T18:41:20.374Z,1.27
2019-05-10T18:44:14.288Z,1.80
2019-05-10T18:47:00.822Z,1.35
2019-05-10T18:49:50.322Z,1.40
2019-05-10T18:52:39.479Z,1.27
2019-05-10T18:55:28.293Z,1.42
2019-05-10T18:58:23.256Z,1.45
2019-05-10T19:01:08.938Z,1.30
2019-05-10T19:03:57.869Z,1.77
2019-05-10T19:06:49.892Z,1.32
2019-05-10T19:09:37.517Z,1.90
2019-05-10T19:12:27.459Z,1.72
2019-05-10T19:15:17.183Z,1.20
2019-05-10T19:18:06.512Z,1.72
2019-05-10T19:20:55.533Z,1.20
2019-05-10T19:23:44.406Z,1.55
2019-05-10T19:26:33.731Z,1.60
2019-05-10T19:29:22.257Z,1.40
2019-05-10T19:32:18.359Z,1.72
2019-05-10T19:35:01.926Z,1.62
2019-05-10T19:37:50.573Z,1.47
2019-05-10T19:40:39.905Z,1.62
2019-05-10T19:43:29.013Z,1.67
2019-05-10T19:46:18.006Z,1.65
2019-05-10T19:49:07.452Z,1.40
2019-05-10T19:51:57.955Z,1.42
2019-05-10T19:54:47.570Z,1.40
2019-05-10T19:57:37.191Z,1.35
2019-05-10T20:00:26.411Z,1.75
2019-05-10T20:03:15.737Z,1.65
2019-05-10T20:06:04.640Z,1.25
2019-05-10T20:08:53.963Z,1.47
2019-05-10T20:11:43.505Z,1.95
2019-05-10T20:14:32.290Z,1.72
2019-05-10T20:17:21.339Z,1.45
2019-05-10T20:20:11.763Z,1.42
2019-05-10T20:23:01.536Z,1.70
2019-05-10T20:25:50.896Z,1.50
2019-05-10T20:28:40.256Z,1.50
2019-05-10T20:31:30.664Z,1.52
2019-05-10T20:34:23.907Z,1.55
2019-05-10T20:37:10.857Z,1.47
2019-05-10T20:40:00.118Z,2.02
2019-05-10T20:42:49.567Z,2.00
2019-05-10T20:45:38.519Z,1.67
2019-05-10T20:48:27.526Z,1.95
2019-05-10T20:51:16.856Z,2.20
2019-05-10T20:54:05.943Z,2.25
2019-05-10T20:56:55.530Z,1.67
2019-05-10T20:59:45.466Z,1.80
2019-05-10T21:02:35.277Z,1.75
2019-05-10T21:05:24.844Z,1.65
2019-05-10T21:08:16.912Z,1.77
2019-05-10T21:11:04.834Z,1.85
2019-05-10T21:13:57.799Z,1.80
2019-05-10T21:16:45.533Z,1.95
2019-05-10T21:19:34.746Z,1.60
2019-05-10T21:22:24.159Z,1.98
2019-05-10T21:25:14.594Z,1.77
2019-05-10T21:28:05.307Z,1.70
2019-05-10T21:30:54.945Z,2.30
2019-05-10T21:33:44.900Z,1.85
2019-05-10T21:36:33.904Z,1.92
2019-05-10T21:39:23.512Z,1.70
2019-05-10T21:42:15.174Z,1.70
2019-05-10T21:45:05.906Z,1.87
2019-05-10T21:47:55.793Z,2.67
2019-05-10T21:50:47.707Z,2.60
2019-05-10T21:53:37.036Z,1.60
2019-05-10T21:56:27.346Z,1.95
2019-05-10T21:59:18.392Z,1.90
2019-05-10T22:02:07.927Z,2.15
2019-05-10T22:04:57.162Z,1.70
2019-05-10T22:07:46.917Z,1.85
2019-05-10T22:10:36.864Z,1.70
2019-05-10T22:13:25.862Z,1.90
2019-05-10T22:16:16.009Z,1.67
2019-05-10T22:19:07.770Z,1.62
2019-05-10T22:21:57.381Z,2.00
2019-05-10T22:24:47.098Z,1.77
2019-05-10T22:27:36.709Z,1.60
2019-05-10T22:30:26.802Z,1.98
2019-05-10T22:33:17.529Z,1.47
2019-05-10T22:36:07.049Z,2.00
2019-05-10T22:39:06.644Z,2.05
2019-05-10T22:41:46.647Z,1.65
2019-05-10T22:44:35.759Z,1.82
2019-05-10T22:47:25.625Z,1.98
2019-05-10T22:50:15.055Z,1.92
2019-05-10T22:53:04.413Z,2.25
2019-05-10T22:55:54.388Z,1.92
2019-05-10T22:58:43.118Z,2.17
2019-05-10T23:01:35.316Z,1.90
2019-05-10T23:04:26.657Z,2.22
2019-05-10T23:07:16.090Z,1.80
2019-05-10T23:10:04.988Z,1.98
2019-05-10T23:12:54.167Z,2.45
2019-05-10T23:15:43.635Z,2.20
2019-05-10T23:18:33.030Z,2.02
2019-05-10T23:21:22.112Z,3.20
2019-05-10T23:24:13.303Z,2.10
2019-05-10T23:27:02.866Z,1.87
2019-05-10T23:29:52.280Z,2.65
2019-05-10T23:32:42.405Z,2.10
2019-05-10T23:35:31.160Z,2.15
2019-05-10T23:38:20.539Z,2.10
2019-05-10T23:41:09.477Z,1.82
2019-05-10T23:43:58.920Z,1.98
2019-05-10T23:46:47.673Z,1.82
2019-05-10T23:49:37.313Z,2.35
2019-05-10T23:52:26.704Z,2.50
2019-05-10T23:55:16.420Z,2.22
2019-05-10T23:58:05.794Z,2.27
